マカオ の空港の天気 - METARとTAF

マカオ国際空港 ( VMMC / MFM ) - マカオ タイパ島
飛行場実況気象(Metar)
観測時間08/16 14:30 CST (08/16 06:30 UTC)
風向・風速南南東 4m/s
視程10km以上
天気現象
少しの雲 雲底高度 370m
全天の4割程度の雲 雲底高度 760m
気温30℃
湿度79%
気圧999hPa
METARVMMC 160630Z 16008KT 9999 FEW012 SCT025 30/26 Q0999 NOSIG
過去の天気等 Google飛行場航空写真 Wunderground天気予報

過去48時間のMETAR

飛行場予報(TAF)
発表時間: 8/16 13:00 CST (8/16 05:00 UTC)
予報対象時間: 16日14時 CST ~ 17日20時 CST
風向・風速南南東 4m/s
視程10km以上
少しの雲 雲底高度 370m
全天の4割程度の雲 雲底高度 760m
16日15時 CST ~ 16日20時 CST に一時的に
視程3500m
天気現象しゅう雨
少しの積乱雲 雲底高度 300m
全天の4割程度の雲 雲底高度 610m
17日0時 CST ~ 17日12時 CST に一時的に
視程3500m
天気現象しゅう雨
少しの積乱雲 雲底高度 300m
全天の4割程度の雲 雲底高度 610m
TAF VMMC 160500Z 1606/1712 15008KT 9999 FEW012 SCT025
TEMPO 1607/1612 3500 SHRA FEW010CB SCT020
TEMPO 1616/1704 3500 SHRA FEW010CB SCT020